createdAt,value
2018-03-24T00:01:37.149Z,60.60
2018-03-24T00:04:05.402Z,60.80
2018-03-24T00:06:34.446Z,60.90
2018-03-24T00:09:02.678Z,60.90
2018-03-24T00:11:30.950Z,62.00
2018-03-24T00:13:59.262Z,61.10
2018-03-24T00:16:27.477Z,60.90
2018-03-24T00:18:55.785Z,60.60
2018-03-24T00:21:24.882Z,61.30
2018-03-24T00:23:53.138Z,60.50
2018-03-24T00:26:22.276Z,60.60
2018-03-24T00:28:50.547Z,60.60
2018-03-24T00:31:18.818Z,60.40
2018-03-24T00:33:47.116Z,60.40
2018-03-24T00:36:15.368Z,60.30
2018-03-24T00:38:43.595Z,60.40
2018-03-24T00:41:11.916Z,60.60
2018-03-24T00:43:40.226Z,60.40
2018-03-24T00:46:08.611Z,60.30
2018-03-24T00:48:36.944Z,60.30
2018-03-24T00:51:06.107Z,60.30
2018-03-24T00:53:34.499Z,60.20
2018-03-24T00:56:02.839Z,60.30
2018-03-24T00:58:31.095Z,60.10
2018-03-24T01:00:59.496Z,60.00
2018-03-24T01:03:27.857Z,60.00
2018-03-24T01:05:56.325Z,60.00
2018-03-24T01:08:24.664Z,60.30
2018-03-24T01:10:52.921Z,60.30
2018-03-24T01:13:21.216Z,60.10
2018-03-24T01:15:49.508Z,60.10
2018-03-24T01:18:18.625Z,59.90
2018-03-24T01:20:46.874Z,59.80
2018-03-24T01:23:15.185Z,60.00
2018-03-24T01:25:43.501Z,59.70
2018-03-24T01:28:11.741Z,59.60
2018-03-24T01:30:40.016Z,59.70
2018-03-24T01:33:08.281Z,59.80
2018-03-24T01:35:37.280Z,59.60
2018-03-24T01:38:05.502Z,59.60
2018-03-24T01:40:33.756Z,59.70
2018-03-24T01:43:02.085Z,59.40
2018-03-24T01:45:31.129Z,59.50
2018-03-24T01:47:59.363Z,59.50
2018-03-24T01:50:28.371Z,59.40
2018-03-24T01:52:56.596Z,59.30
2018-03-24T01:55:24.853Z,59.30
2018-03-24T01:57:53.087Z,59.00
2018-03-24T02:00:22.078Z,58.80
2018-03-24T02:02:51.105Z,58.90
2018-03-24T02:05:19.325Z,58.90
2018-03-24T02:07:47.588Z,59.50
2018-03-24T02:10:15.825Z,58.90
2018-03-24T02:12:44.081Z,59.00
2018-03-24T02:15:13.082Z,59.00
2018-03-24T02:17:42.152Z,59.20
2018-03-24T02:20:10.405Z,59.20
2018-03-24T02:22:38.689Z,59.30
2018-03-24T02:25:06.941Z,59.20
2018-03-24T02:27:35.190Z,59.10
2018-03-24T02:30:03.482Z,59.20
2018-03-24T02:32:31.727Z,59.00
2018-03-24T02:35:00.755Z,58.90
2018-03-24T02:37:28.968Z,58.80
2018-03-24T02:39:57.238Z,59.00
2018-03-24T02:42:25.490Z,58.90
2018-03-24T02:44:53.755Z,58.90
2018-03-24T02:47:21.971Z,59.00
2018-03-24T02:49:50.225Z,58.90
2018-03-24T02:52:18.457Z,59.30
2018-03-24T02:54:47.479Z,59.10
2018-03-24T02:57:15.729Z,59.00
2018-03-24T02:59:44.730Z,59.20
2018-03-24T03:02:12.980Z,59.10
2018-03-24T03:04:41.229Z,59.20
2018-03-24T03:07:09.483Z,59.20
2018-03-24T03:09:37.750Z,59.50
2018-03-24T03:12:05.988Z,59.60
2018-03-24T03:14:34.215Z,59.50
2018-03-24T03:17:02.450Z,59.40
2018-03-24T03:19:31.474Z,59.20
2018-03-24T03:21:59.713Z,59.10
2018-03-24T03:24:28.714Z,59.10
2018-03-24T03:26:57.731Z,59.30
2018-03-24T03:29:26.014Z,59.20
2018-03-24T03:34:55.657Z,58.90
2018-03-24T03:37:23.888Z,58.80
2018-03-24T03:39:52.928Z,59.10
2018-03-24T03:42:21.159Z,59.00
2018-03-24T03:44:50.246Z,58.90
2018-03-24T03:47:18.477Z,58.80
2018-03-24T03:49:46.740Z,58.90
2018-03-24T03:52:14.986Z,59.00
2018-03-24T03:54:44.013Z,58.80
2018-03-24T03:57:12.262Z,58.80
2018-03-24T03:59:40.520Z,59.00
2018-03-24T04:02:09.552Z,58.50
2018-03-24T04:04:37.820Z,59.00
2018-03-24T04:07:06.083Z,58.90
2018-03-24T04:09:35.108Z,58.80
2018-03-24T04:12:03.358Z,58.60
2018-03-24T04:14:32.383Z,58.70
2018-03-24T04:17:00.638Z,58.60
2018-03-24T04:19:28.957Z,58.90
2018-03-24T04:21:57.970Z,58.90
2018-03-24T04:24:26.274Z,58.90
2018-03-24T04:26:55.303Z,59.00
2018-03-24T04:29:23.528Z,58.90
2018-03-24T04:31:51.903Z,58.90
2018-03-24T04:34:20.182Z,58.80
2018-03-24T04:36:48.424Z,59.00
2018-03-24T04:39:17.489Z,58.90
2018-03-24T04:41:45.738Z,58.90
2018-03-24T04:44:14.820Z,59.20
2018-03-24T04:46:43.072Z,59.20
2018-03-24T04:49:11.484Z,59.20
2018-03-24T04:51:39.706Z,59.50
2018-03-24T04:54:07.967Z,60.40
2018-03-24T04:56:36.195Z,59.80
2018-03-24T04:59:04.432Z,59.70
2018-03-24T05:01:32.702Z,59.70
2018-03-24T05:04:00.996Z,59.80
2018-03-24T05:06:29.955Z,60.00
2018-03-24T05:08:58.967Z,59.80
2018-03-24T05:11:27.259Z,59.80
2018-03-24T05:13:55.522Z,60.40
2018-03-24T05:16:23.771Z,59.70
2018-03-24T05:18:52.774Z,59.70
2018-03-24T05:21:21.076Z,59.70
2018-03-24T05:23:49.309Z,60.00
2018-03-24T05:26:18.465Z,60.10
2018-03-24T05:28:47.402Z,60.30
2018-03-24T05:31:16.415Z,60.20
2018-03-24T05:33:44.698Z,60.10
2018-03-24T05:36:12.941Z,60.10
2018-03-24T05:38:41.958Z,60.40
2018-03-24T05:41:10.209Z,60.40
2018-03-24T05:43:39.274Z,61.30
2018-03-24T05:46:07.612Z,60.30
2018-03-24T05:48:35.849Z,60.60
2018-03-24T05:51:04.794Z,60.40
2018-03-24T05:53:33.043Z,60.30
2018-03-24T05:56:02.089Z,60.40
2018-03-24T05:58:30.418Z,60.30
2018-03-24T06:00:58.690Z,60.30
2018-03-24T06:03:27.697Z,60.00
2018-03-24T06:05:55.945Z,60.00
2018-03-24T06:08:25.015Z,59.90
2018-03-24T06:10:53.242Z,59.80
2018-03-24T06:13:21.520Z,59.60
2018-03-24T06:15:49.786Z,59.90
2018-03-24T06:18:18.780Z,60.00
2018-03-24T06:20:47.851Z,59.90
2018-03-24T06:23:16.114Z,59.90
2018-03-24T06:25:44.365Z,59.70
2018-03-24T06:28:12.640Z,59.60
2018-03-24T06:30:44.346Z,59.80
2018-03-24T06:33:13.390Z,59.90
2018-03-24T06:35:41.647Z,59.80
2018-03-24T06:38:09.885Z,59.90
2018-03-24T06:40:38.105Z,59.80
2018-03-24T06:43:06.426Z,59.80
2018-03-24T06:45:34.660Z,59.60
2018-03-24T06:48:02.927Z,59.50
2018-03-24T06:50:31.170Z,59.40
2018-03-24T06:52:59.412Z,59.40
2018-03-24T06:55:33.413Z,59.40
2018-03-24T06:58:01.661Z,59.50
2018-03-24T07:00:29.907Z,59.30
2018-03-24T07:02:58.191Z,59.20
2018-03-24T07:05:27.194Z,59.00
2018-03-24T07:07:56.249Z,59.20
2018-03-24T07:10:24.499Z,59.20
2018-03-24T07:12:52.735Z,58.80
2018-03-24T07:15:21.752Z,58.80
2018-03-24T07:17:50.002Z,58.80
2018-03-24T07:22:53.623Z,58.80
2018-03-24T07:25:22.628Z,58.80
2018-03-24T07:27:50.860Z,58.50
2018-03-24T07:30:19.091Z,59.00
2018-03-24T07:32:47.351Z,58.40
2018-03-24T07:35:16.375Z,58.60
2018-03-24T07:37:44.626Z,58.60
2018-03-24T07:40:13.634Z,58.00
2018-03-24T07:42:42.615Z,58.00
2018-03-24T07:45:11.644Z,58.00
2018-03-24T07:47:39.907Z,58.00
2018-03-24T07:50:08.099Z,57.90
2018-03-24T07:52:36.353Z,57.60
2018-03-24T07:55:04.666Z,57.70
2018-03-24T07:57:32.939Z,57.60
2018-03-24T08:00:01.165Z,57.50
2018-03-24T08:02:29.392Z,57.30
2018-03-24T08:04:57.633Z,57.30
2018-03-24T08:07:25.866Z,57.10
2018-03-24T08:09:54.112Z,56.90
2018-03-24T08:12:22.352Z,56.80
2018-03-24T08:14:51.360Z,56.60
2018-03-24T08:17:19.621Z,56.50
2018-03-24T08:19:48.630Z,56.40
2018-03-24T08:22:16.859Z,56.30
2018-03-24T08:24:45.084Z,56.30
2018-03-24T08:27:13.387Z,56.30
2018-03-24T08:29:41.625Z,56.20
2018-03-24T08:32:09.878Z,56.10
2018-03-24T08:34:38.871Z,56.20
2018-03-24T08:37:07.905Z,56.30
2018-03-24T08:39:36.149Z,56.20
2018-03-24T08:42:04.373Z,56.20
2018-03-24T08:44:32.602Z,56.00
2018-03-24T08:47:01.626Z,55.70
2018-03-24T08:49:29.863Z,55.70
2018-03-24T08:51:58.888Z,55.60
2018-03-24T08:54:27.111Z,55.60
2018-03-24T08:56:55.353Z,55.50
2018-03-24T08:59:23.603Z,55.50
2018-03-24T09:01:52.598Z,55.70
2018-03-24T09:04:20.861Z,55.60
2018-03-24T09:06:49.862Z,54.60
2018-03-24T09:09:18.869Z,54.90
2018-03-24T09:11:47.130Z,54.90
2018-03-24T09:14:16.114Z,54.70
2018-03-24T09:16:45.127Z,54.40
2018-03-24T09:19:13.392Z,54.40
2018-03-24T09:21:42.405Z,54.60
2018-03-24T09:24:10.630Z,54.50
2018-03-24T09:26:38.890Z,54.20
2018-03-24T09:29:07.121Z,54.30
2018-03-24T09:31:35.373Z,54.40
2018-03-24T09:34:03.651Z,54.50
2018-03-24T09:36:31.882Z,54.90
2018-03-24T09:39:00.210Z,54.20
2018-03-24T09:41:29.203Z,53.50
2018-03-24T09:43:58.274Z,53.30
2018-03-24T09:46:26.594Z,53.30
2018-03-24T09:48:55.651Z,52.90
2018-03-24T09:51:23.961Z,52.90
2018-03-24T09:53:53.139Z,52.80
2018-03-24T09:56:21.442Z,52.80
2018-03-24T09:58:50.563Z,52.70
2018-03-24T10:01:18.897Z,52.60
2018-03-24T10:03:47.139Z,52.70
2018-03-24T10:06:15.467Z,53.10
2018-03-24T10:08:44.490Z,52.90
2018-03-24T10:11:12.737Z,52.80
2018-03-24T10:13:41.735Z,52.70
2018-03-24T10:16:09.986Z,52.60
2018-03-24T10:18:38.232Z,52.30
2018-03-24T10:24:25.878Z,52.60
2018-03-24T10:26:54.150Z,52.70
2018-03-24T10:29:22.394Z,53.30
2018-03-24T10:31:50.644Z,52.30
2018-03-24T10:34:18.907Z,52.30
2018-03-24T10:36:47.160Z,52.30
2018-03-24T10:39:15.398Z,52.70
2018-03-24T10:41:43.878Z,52.60
2018-03-24T10:44:12.887Z,52.30
2018-03-24T10:46:41.347Z,52.20
2018-03-24T10:49:10.042Z,52.00
2018-03-24T10:51:38.279Z,51.90
2018-03-24T10:54:06.827Z,51.40
2018-03-24T10:56:35.229Z,51.50
2018-03-24T10:59:03.833Z,51.50
2018-03-24T11:01:32.346Z,51.20
2018-03-24T11:04:00.697Z,50.50
2018-03-24T11:06:29.090Z,50.20
2018-03-24T11:08:58.306Z,50.40
2018-03-24T11:11:26.650Z,50.40
2018-03-24T11:13:54.907Z,49.90
2018-03-24T11:16:23.288Z,49.70
2018-03-24T11:18:51.694Z,49.10
2018-03-24T11:21:20.850Z,49.20
2018-03-24T11:23:49.145Z,48.60
2018-03-24T11:26:17.438Z,48.80
2018-03-24T11:28:45.975Z,48.50
2018-03-24T11:31:14.502Z,48.70
2018-03-24T11:33:42.863Z,48.70
2018-03-24T11:36:11.126Z,48.50
2018-03-24T11:38:39.506Z,48.50
2018-03-24T11:41:07.783Z,48.60
2018-03-24T11:43:36.114Z,49.20
2018-03-24T11:46:04.523Z,48.80
2018-03-24T11:48:32.886Z,48.60
2018-03-24T11:51:01.148Z,48.50
2018-03-24T11:53:42.210Z,48.40
2018-03-24T11:56:11.266Z,48.10
2018-03-24T11:58:39.718Z,48.00
2018-03-24T12:01:08.052Z,48.40
2018-03-24T12:03:36.356Z,48.10
2018-03-24T12:06:05.537Z,48.20
2018-03-24T12:08:34.448Z,48.20
2018-03-24T12:11:02.714Z,48.20
2018-03-24T12:13:31.786Z,47.60
2018-03-24T12:16:00.022Z,47.50
2018-03-24T12:18:28.398Z,48.20
2018-03-24T12:20:57.572Z,48.00
2018-03-24T12:23:26.660Z,48.00
2018-03-24T12:25:55.726Z,48.10
2018-03-24T12:28:23.993Z,48.00
2018-03-24T12:30:52.337Z,47.60
2018-03-24T12:33:20.609Z,47.20
2018-03-24T12:35:48.858Z,47.60
2018-03-24T12:38:17.873Z,47.30
2018-03-24T12:40:46.190Z,47.30
2018-03-24T12:43:14.461Z,47.50
2018-03-24T12:45:42.815Z,47.70
2018-03-24T12:48:11.158Z,47.60
2018-03-24T12:50:39.475Z,47.00
2018-03-24T12:53:07.758Z,46.70
2018-03-24T12:55:35.982Z,46.70
2018-03-24T12:58:04.676Z,45.90
2018-03-24T13:00:32.906Z,46.00
2018-03-24T13:03:01.162Z,45.70
2018-03-24T13:05:29.433Z,46.30
2018-03-24T13:07:57.706Z,46.70
2018-03-24T13:10:26.178Z,46.50
2018-03-24T13:12:54.502Z,46.40
2018-03-24T13:15:22.771Z,46.10
2018-03-24T13:17:51.159Z,45.90
2018-03-24T13:20:19.492Z,46.30
2018-03-24T13:22:48.764Z,46.50
2018-03-24T13:25:17.830Z,46.50
2018-03-24T13:27:46.311Z,46.50
2018-03-24T13:30:14.623Z,46.40
2018-03-24T13:32:42.938Z,46.10
2018-03-24T13:35:11.195Z,46.60
2018-03-24T13:37:40.241Z,46.90
2018-03-24T13:40:08.482Z,46.80
2018-03-24T13:42:36.729Z,46.90
2018-03-24T13:45:05.870Z,46.60
2018-03-24T13:47:34.215Z,46.50
2018-03-24T13:50:03.237Z,46.60
2018-03-24T13:52:31.560Z,46.50
2018-03-24T13:54:59.871Z,46.80
2018-03-24T13:57:28.227Z,46.90
2018-03-24T13:59:56.532Z,47.00
2018-03-24T14:02:25.569Z,46.80
2018-03-24T14:04:53.856Z,46.70
2018-03-24T14:07:22.186Z,46.70
2018-03-24T14:09:50.453Z,47.00
2018-03-24T14:12:18.724Z,46.80
2018-03-24T14:14:47.816Z,47.00
2018-03-24T14:17:16.061Z,46.90
2018-03-24T14:19:44.308Z,46.80
2018-03-24T14:22:12.632Z,46.50
2018-03-24T14:24:40.979Z,46.60
2018-03-24T14:27:09.241Z,46.30
2018-03-24T14:29:37.579Z,46.50
2018-03-24T14:32:06.661Z,46.50
2018-03-24T14:34:35.089Z,46.50
2018-03-24T14:37:03.416Z,46.50
2018-03-24T14:39:31.714Z,46.30
2018-03-24T14:42:00.748Z,46.80
2018-03-24T14:44:28.989Z,46.70
2018-03-24T14:46:58.078Z,46.30
2018-03-24T14:49:27.085Z,46.60
2018-03-24T14:51:55.397Z,46.50
2018-03-24T14:54:23.757Z,46.80
2018-03-24T14:56:51.932Z,47.00
2018-03-24T14:59:20.273Z,46.40
2018-03-24T15:01:48.515Z,46.20
2018-03-24T15:04:17.712Z,46.50
2018-03-24T15:06:45.995Z,46.50
2018-03-24T15:09:14.262Z,46.30
2018-03-24T15:11:42.647Z,46.20
2018-03-24T15:14:11.049Z,46.50
2018-03-24T15:16:39.329Z,46.80
2018-03-24T15:19:07.658Z,47.10
2018-03-24T15:21:36.105Z,47.30
2018-03-24T15:24:05.146Z,47.00
2018-03-24T15:26:33.391Z,46.90
2018-03-24T15:29:13.743Z,46.80
2018-03-24T15:31:54.039Z,47.00
2018-03-24T15:34:34.131Z,47.20
2018-03-24T15:37:02.475Z,46.70
2018-03-24T15:39:30.724Z,47.10
2018-03-24T15:41:59.062Z,47.50
2018-03-24T15:44:27.350Z,47.30
2018-03-24T15:46:55.758Z,47.00
2018-03-24T15:49:24.184Z,47.50
2018-03-24T15:51:52.475Z,47.50
2018-03-24T15:54:20.736Z,47.60
2018-03-24T15:56:48.968Z,47.70
2018-03-24T15:59:17.220Z,47.60
2018-03-24T16:01:45.789Z,47.70
2018-03-24T16:04:14.057Z,47.70
2018-03-24T16:06:42.396Z,47.70
2018-03-24T16:09:10.651Z,47.80
2018-03-24T16:11:39.157Z,47.60
2018-03-24T16:14:07.517Z,47.60
2018-03-24T16:16:35.832Z,47.50
2018-03-24T16:19:04.104Z,47.90
2018-03-24T16:21:32.459Z,47.80
2018-03-24T16:24:00.901Z,47.70
2018-03-24T16:26:29.208Z,47.90
2018-03-24T16:28:57.467Z,47.70
2018-03-24T16:31:26.850Z,47.90
2018-03-24T16:33:55.161Z,47.80
2018-03-24T16:36:23.423Z,47.80
2018-03-24T16:38:52.590Z,47.90
2018-03-24T16:41:20.889Z,47.90
2018-03-24T16:43:49.615Z,48.50
2018-03-24T16:46:18.010Z,48.20
2018-03-24T16:48:46.319Z,48.40
2018-03-24T16:51:14.749Z,48.80
2018-03-24T16:53:43.015Z,48.80
2018-03-24T16:56:11.303Z,49.00
2018-03-24T16:58:39.601Z,49.20
2018-03-24T17:01:07.947Z,49.00
2018-03-24T17:03:36.390Z,49.00
2018-03-24T17:06:04.698Z,49.30
2018-03-24T17:08:33.302Z,49.50
2018-03-24T17:11:01.554Z,49.30
2018-03-24T17:13:30.947Z,49.60
2018-03-24T17:15:59.305Z,49.60
2018-03-24T17:18:27.567Z,49.80
2018-03-24T17:20:56.017Z,49.80
2018-03-24T17:23:24.284Z,50.00
2018-03-24T17:25:52.558Z,50.10
2018-03-24T17:28:20.878Z,50.20
2018-03-24T17:30:49.977Z,50.70
2018-03-24T17:33:18.221Z,50.70
2018-03-24T17:35:46.485Z,50.60
2018-03-24T17:38:15.306Z,50.70
2018-03-24T17:40:43.620Z,51.10
2018-03-24T17:43:11.898Z,51.10
2018-03-24T17:45:41.001Z,50.90
2018-03-24T17:48:10.011Z,51.90
2018-03-24T17:50:38.274Z,51.40
2018-03-24T17:53:07.504Z,51.70
2018-03-24T17:55:35.745Z,51.60
2018-03-24T17:58:04.782Z,51.90
2018-03-24T18:00:33.115Z,51.80
2018-03-24T18:03:01.611Z,52.00
2018-03-24T18:05:29.894Z,52.10
2018-03-24T18:07:59.011Z,52.70
2018-03-24T18:10:28.019Z,52.60
2018-03-24T18:12:56.243Z,52.90
2018-03-24T18:15:25.295Z,53.10
2018-03-24T18:17:54.149Z,53.10
2018-03-24T18:20:23.004Z,53.20
2018-03-24T18:22:51.238Z,53.20
2018-03-24T18:25:19.666Z,53.20
2018-03-24T18:27:47.924Z,53.20
2018-03-24T18:30:16.146Z,52.80
2018-03-24T18:32:44.808Z,53.30
2018-03-24T18:35:13.039Z,53.40
2018-03-24T18:37:41.429Z,53.60
2018-03-24T18:40:09.769Z,53.70
2018-03-24T18:42:37.993Z,54.00
2018-03-24T18:45:06.463Z,54.00
2018-03-24T18:47:34.769Z,54.00
2018-03-24T18:50:03.034Z,54.10
2018-03-24T18:52:31.326Z,54.20
2018-03-24T18:54:59.585Z,54.30
2018-03-24T18:57:27.883Z,54.30
2018-03-24T18:59:56.880Z,55.10
2018-03-24T19:02:25.132Z,54.40
2018-03-24T19:04:53.350Z,54.60
2018-03-24T19:07:21.599Z,54.70
2018-03-24T19:09:49.876Z,54.60
2018-03-24T19:12:18.119Z,55.50
2018-03-24T19:14:46.408Z,54.80
2018-03-24T19:17:14.632Z,54.90
2018-03-24T19:19:42.916Z,54.90
2018-03-24T19:22:11.162Z,54.90
2018-03-24T19:24:40.203Z,55.20
2018-03-24T19:27:08.438Z,55.00
2018-03-24T19:29:37.458Z,55.10
2018-03-24T19:32:05.711Z,55.10
2018-03-24T19:34:34.695Z,55.20
2018-03-24T19:37:02.941Z,55.80
2018-03-24T19:39:31.167Z,55.30
2018-03-24T19:42:00.183Z,55.30
2018-03-24T19:44:28.431Z,55.30
2018-03-24T19:46:57.426Z,55.60
2018-03-24T19:49:26.455Z,56.00
2018-03-24T19:51:54.675Z,55.90
2018-03-24T19:54:22.923Z,55.90
2018-03-24T19:56:51.146Z,55.90
2018-03-24T19:59:20.159Z,56.10
2018-03-24T20:01:48.377Z,56.10
2018-03-24T20:04:16.642Z,56.00
2018-03-24T20:06:44.868Z,56.40
2018-03-24T20:09:13.910Z,56.40
2018-03-24T20:11:42.122Z,56.30
2018-03-24T20:14:10.363Z,56.20
2018-03-24T20:16:39.369Z,56.20
2018-03-24T20:19:07.612Z,56.10
2018-03-24T20:21:35.851Z,56.30
2018-03-24T20:24:04.888Z,57.00
2018-03-24T20:26:33.117Z,56.90
2018-03-24T20:29:02.139Z,57.60
2018-03-24T20:31:30.389Z,57.10
2018-03-24T20:33:59.408Z,57.10
2018-03-24T20:36:27.630Z,57.00
2018-03-24T20:38:55.894Z,57.10
2018-03-24T20:41:24.212Z,57.00
2018-03-24T20:43:52.493Z,57.30
2018-03-24T20:46:21.517Z,57.40
2018-03-24T20:48:49.774Z,57.30
2018-03-24T20:51:18.851Z,57.40
2018-03-24T20:53:47.161Z,57.40
2018-03-24T20:56:15.389Z,57.60
2018-03-24T20:58:43.893Z,57.50
2018-03-24T21:01:12.125Z,57.30
2018-03-24T21:03:40.594Z,57.40
2018-03-24T21:06:08.818Z,57.60
2018-03-24T21:08:37.101Z,57.60
2018-03-24T21:11:06.162Z,57.70
2018-03-24T21:13:34.420Z,57.60
2018-03-24T21:16:02.669Z,57.90
2018-03-24T21:18:31.056Z,58.00
2018-03-24T21:20:59.361Z,58.10
2018-03-24T21:23:27.762Z,58.20
2018-03-24T21:25:56.096Z,58.30
2018-03-24T21:28:24.328Z,58.40
2018-03-24T21:30:52.583Z,58.30
2018-03-24T21:33:20.811Z,58.30
2018-03-24T21:35:49.060Z,58.30
2018-03-24T21:38:17.294Z,58.30
2018-03-24T21:40:45.551Z,58.30
2018-03-24T21:43:13.838Z,58.30
2018-03-24T21:45:42.790Z,58.10
2018-03-24T21:48:11.904Z,58.10
2018-03-24T21:50:40.990Z,57.90
2018-03-24T21:53:09.245Z,57.90
2018-03-24T21:55:37.498Z,58.20
2018-03-24T21:58:05.749Z,58.40
2018-03-24T22:00:34.015Z,58.50
2018-03-24T22:03:02.278Z,58.40
2018-03-24T22:05:30.516Z,58.80
2018-03-24T22:07:58.768Z,59.10
2018-03-24T22:10:27.023Z,59.00
2018-03-24T22:12:55.462Z,58.80
2018-03-24T22:15:23.683Z,58.80
2018-03-24T22:17:51.975Z,58.90
2018-03-24T22:20:20.498Z,59.20
2018-03-24T22:22:48.731Z,59.50
2018-03-24T22:25:17.002Z,59.60
2018-03-24T22:27:45.278Z,59.40
2018-03-24T22:30:13.517Z,59.00
2018-03-24T22:32:42.539Z,58.50
2018-03-24T22:35:10.782Z,58.40
2018-03-24T22:37:39.878Z,58.80
2018-03-24T22:40:08.093Z,58.80
2018-03-24T22:42:36.474Z,58.90
2018-03-24T22:45:04.689Z,59.00
2018-03-24T22:47:32.934Z,59.20
2018-03-24T22:50:01.174Z,59.60
2018-03-24T22:52:30.197Z,59.70
2018-03-24T22:54:58.505Z,59.70
2018-03-24T22:57:26.818Z,60.00
2018-03-24T22:59:55.816Z,60.20
2018-03-24T23:02:24.044Z,60.20
2018-03-24T23:04:52.417Z,60.00
2018-03-24T23:07:20.632Z,60.20
2018-03-24T23:09:49.641Z,60.00
2018-03-24T23:12:17.886Z,60.00
2018-03-24T23:14:46.213Z,60.20
2018-03-24T23:17:14.438Z,60.30
2018-03-24T23:19:42.752Z,60.20
2018-03-24T23:22:10.985Z,60.10
2018-03-24T23:24:39.248Z,60.00
2018-03-24T23:27:07.521Z,59.90
2018-03-24T23:29:35.784Z,59.90
2018-03-24T23:32:04.130Z,59.80
2018-03-24T23:34:33.170Z,60.00
2018-03-24T23:37:01.498Z,60.00
2018-03-24T23:39:30.550Z,60.20
2018-03-24T23:41:59.593Z,59.90
2018-03-24T23:44:27.842Z,59.90
2018-03-24T23:46:56.151Z,60.00
2018-03-24T23:49:24.370Z,60.20
2018-03-24T23:51:52.650Z,60.20
2018-03-24T23:54:20.950Z,60.40
2018-03-24T23:56:49.216Z,60.30
2018-03-24T23:59:17.443Z,61.00
